createdAt,value
2022-10-23T00:01:53.657Z,32.3
2022-10-23T00:03:59.443Z,19.9
2022-10-23T00:06:05.206Z,34.4
2022-10-23T00:08:10.992Z,41.4
2022-10-23T00:10:16.744Z,31.7
2022-10-23T00:12:25.482Z,35.6
2022-10-23T00:14:31.249Z,42.5
2022-10-23T00:16:37.016Z,62.2
2022-10-23T00:17:41.676Z,57.3
2022-10-23T00:19:47.168Z,27.1
2022-10-23T00:21:52.933Z,39.1
2022-10-23T00:26:07.449Z,34.1
2022-10-23T00:28:13.203Z,32.2
2022-10-23T00:30:18.957Z,26.6
2022-10-23T00:32:24.777Z,36.1
2022-10-23T00:34:30.503Z,33.8
2022-10-23T00:36:36.266Z,47.6
2022-10-23T00:38:42.019Z,26.6
2022-10-23T00:40:50.811Z,34.5
2022-10-23T00:42:56.520Z,39.3
2022-10-23T00:45:02.326Z,41.8
2022-10-23T00:47:08.026Z,36.2
2022-10-23T00:49:13.787Z,38.2
2022-10-23T00:51:19.554Z,34.1
2022-10-23T00:53:25.298Z,30.3
2022-10-23T00:55:34.059Z,41.1
2022-10-23T00:57:39.810Z,29.6
2022-10-23T00:59:45.559Z,29.1
2022-10-23T01:01:51.481Z,30
2022-10-23T01:03:57.088Z,45
2022-10-23T01:06:02.870Z,29
2022-10-23T01:08:08.631Z,25.6
2022-10-23T01:12:23.132Z,41.5
2022-10-23T01:14:28.888Z,26.9
2022-10-23T01:15:33.254Z,36.7
2022-10-23T01:17:40.993Z,29.2
2022-10-23T01:19:44.786Z,24.8
2022-10-23T01:21:50.547Z,37.5
2022-10-23T01:23:59.291Z,64.6
2022-10-23T01:26:05.058Z,22.9
2022-10-23T01:28:10.826Z,36.3
2022-10-23T01:30:16.569Z,28.4
2022-10-23T01:32:22.343Z,35.4
2022-10-23T01:34:28.106Z,37.1
2022-10-23T01:36:33.985Z,38.2
2022-10-23T01:40:48.350Z,35.3
2022-10-23T01:44:59.854Z,26.2
2022-10-23T01:47:05.632Z,40.4
2022-10-23T01:49:11.388Z,34
2022-10-23T01:51:17.141Z,28.3
2022-10-23T01:53:25.871Z,37
2022-10-23T01:55:31.718Z,28.5
2022-10-23T01:57:37.401Z,28.1
2022-10-23T01:59:43.146Z,42.8
2022-10-23T02:01:49.005Z,34.4
2022-10-23T02:03:54.737Z,28.5
2022-10-23T02:06:00.424Z,37.6
2022-10-23T02:08:09.134Z,33.4
2022-10-23T02:10:14.890Z,43.9
2022-10-23T02:12:20.727Z,34.8
2022-10-23T02:17:36.538Z,39.3
2022-10-23T02:21:50.999Z,31.1
2022-10-23T02:26:02.541Z,30.2
2022-10-23T02:28:08.281Z,31.1
2022-10-23T02:32:19.774Z,31.5
2022-10-23T02:34:25.520Z,33.5
2022-10-23T02:36:34.263Z,29
2022-10-23T02:38:40.004Z,35.6
2022-10-23T02:40:45.773Z,30.1
2022-10-23T02:42:51.547Z,39.5
2022-10-23T02:44:57.275Z,44.8
2022-10-23T02:51:17.516Z,31.8
2022-10-23T02:53:23.381Z,33.7
2022-10-23T02:55:29.114Z,32.7
2022-10-23T02:57:34.889Z,28.9
2022-10-23T02:59:40.625Z,31.7
2022-10-23T03:01:46.487Z,46.1
2022-10-23T03:03:52.116Z,26.2
2022-10-23T03:06:00.869Z,27.4
2022-10-23T03:08:06.615Z,32.1
2022-10-23T03:10:12.366Z,35.2
2022-10-23T03:12:44.107Z,35
2022-10-23T03:14:49.530Z,38.4
2022-10-23T03:16:55.198Z,34.3
2022-10-23T03:21:09.661Z,29.5
2022-10-23T03:23:15.413Z,33.8
2022-10-23T03:31:38.426Z,40.3
2022-10-23T03:33:47.141Z,35.6
2022-10-23T03:35:52.917Z,32
2022-10-23T03:37:58.660Z,28.6
2022-10-23T03:40:04.417Z,22
2022-10-23T03:42:10.145Z,30
2022-10-23T03:44:15.899Z,33.9
2022-10-23T03:46:21.653Z,40.1
2022-10-23T03:48:30.396Z,31.2
2022-10-23T03:50:36.172Z,33.8
2022-10-23T03:52:42.313Z,33.8
2022-10-23T03:54:47.651Z,32.4
2022-10-23T03:56:56.513Z,40.9
2022-10-23T03:58:59.181Z,23.9
2022-10-23T04:01:04.954Z,28.2
2022-10-23T04:03:13.658Z,33.2
2022-10-23T04:05:19.386Z,29.9
2022-10-23T04:07:25.150Z,32.5
2022-10-23T04:08:29.499Z,36.4
2022-10-23T04:10:35.260Z,33.7
2022-10-23T04:12:41.288Z,25.5
2022-10-23T04:14:46.759Z,27.5
2022-10-23T04:16:55.447Z,26.5
2022-10-23T04:19:01.191Z,28.2
2022-10-23T04:21:06.933Z,31.2
2022-10-23T04:23:12.690Z,38.4
2022-10-23T04:25:18.432Z,33.6
2022-10-23T04:27:24.202Z,28.9
2022-10-23T04:29:29.915Z,23.8
2022-10-23T04:31:38.635Z,30.4
2022-10-23T04:33:44.365Z,24.4
2022-10-23T04:35:51.705Z,26.4
2022-10-23T04:37:57.399Z,26.5
2022-10-23T04:42:08.877Z,26
2022-10-23T04:48:29.369Z,39.4
2022-10-23T04:50:35.013Z,33.1
2022-10-23T04:52:41.048Z,26.7
2022-10-23T04:54:46.647Z,43.3
2022-10-23T04:56:52.410Z,28.1
2022-10-23T04:58:58.181Z,38.2
2022-10-23T05:01:06.965Z,29.4
2022-10-23T05:03:12.632Z,30.7
2022-10-23T05:05:18.364Z,26.2
2022-10-23T05:06:22.731Z,19.9
2022-10-23T05:12:39.988Z,30
2022-10-23T05:19:01.238Z,19.2
2022-10-23T05:21:05.954Z,26.5
2022-10-23T05:23:11.716Z,58.9
2022-10-23T05:25:17.459Z,29.2
2022-10-23T05:29:31.932Z,25.1
2022-10-23T05:31:37.677Z,41.8
2022-10-23T05:33:44.177Z,34.6
2022-10-23T05:35:49.196Z,32
2022-10-23T05:40:00.710Z,39.6
2022-10-23T05:42:06.446Z,20.2
2022-10-23T05:44:15.169Z,39.2
2022-10-23T05:46:20.981Z,35.2
2022-10-23T05:56:49.710Z,36.8
2022-10-23T05:58:58.453Z,55.9
2022-10-23T06:01:04.279Z,47
2022-10-23T06:03:09.924Z,25.8
2022-10-23T06:04:14.318Z,32.6
2022-10-23T06:06:20.063Z,23.7
2022-10-23T06:08:25.810Z,25.2
2022-10-23T06:10:31.571Z,31.8
2022-10-23T06:12:40.324Z,26.9
2022-10-23T06:14:46.087Z,27.7
2022-10-23T06:16:51.830Z,20.9
2022-10-23T06:18:57.595Z,28.6
2022-10-23T06:21:03.341Z,39.6
2022-10-23T06:27:23.601Z,28.5
2022-10-23T06:29:29.379Z,30.3
2022-10-23T06:31:35.118Z,20.8
2022-10-23T06:33:40.871Z,44.6
2022-10-23T06:35:46.651Z,24.1
2022-10-23T06:37:52.399Z,27
2022-10-23T06:39:58.150Z,26.8
2022-10-23T06:42:06.899Z,28.8
2022-10-23T06:44:12.652Z,32.1
2022-10-23T06:46:18.399Z,17.6
2022-10-23T06:50:29.931Z,23.5
2022-10-23T06:52:46.502Z,23.8
2022-10-23T06:54:41.447Z,31.9
2022-10-23T06:56:50.186Z,28.9
2022-10-23T06:58:55.951Z,45
2022-10-23T07:01:01.867Z,30.4
2022-10-23T07:03:27.650Z,32.6
2022-10-23T07:05:33.408Z,25.2
2022-10-23T07:07:39.166Z,22.1
2022-10-23T07:09:47.918Z,23.3
2022-10-23T07:11:53.695Z,41
2022-10-23T07:13:59.459Z,24.1
2022-10-23T07:16:05.235Z,26
2022-10-23T07:18:10.989Z,26.4
2022-10-23T07:20:16.940Z,34.7
2022-10-23T07:26:37.065Z,21.5
2022-10-23T07:28:42.846Z,29
2022-10-23T07:30:48.614Z,27.3
2022-10-23T07:35:00.305Z,24.3
2022-10-23T07:37:05.900Z,39.3
2022-10-23T07:39:14.677Z,33.6
2022-10-23T07:41:20.444Z,35
2022-10-23T07:43:26.271Z,25.5
2022-10-23T07:47:37.729Z,23.9
2022-10-23T07:49:43.517Z,34.6
2022-10-23T07:51:51.410Z,35.5
2022-10-23T07:53:58.069Z,25.9
2022-10-23T07:59:13.963Z,53.6
2022-10-23T08:01:19.799Z,29.5
2022-10-23T08:03:25.535Z,38.1
2022-10-23T08:07:40.082Z,40.9
2022-10-23T08:09:45.865Z,30.7
2022-10-23T08:11:51.625Z,21.5
2022-10-23T08:13:57.403Z,28.4
2022-10-23T08:18:08.962Z,18.6
2022-10-23T08:20:14.734Z,18.3
2022-10-23T08:22:23.509Z,23.7
2022-10-23T08:24:29.275Z,17.4
2022-10-23T08:26:35.089Z,19.6
2022-10-23T08:28:40.872Z,17
2022-10-23T08:30:46.651Z,18.6
2022-10-23T08:32:52.438Z,30.6
2022-10-23T08:34:58.239Z,18.1
2022-10-23T08:37:06.981Z,16.4
2022-10-23T08:39:12.782Z,17.9
2022-10-23T08:41:18.557Z,15.9
2022-10-23T08:43:24.383Z,11.8
2022-10-23T08:45:30.161Z,31.3
2022-10-23T08:47:35.957Z,15.4
2022-10-23T08:49:41.742Z,19.9
2022-10-23T08:51:50.508Z,14.9
2022-10-23T08:53:56.311Z,19.9
2022-10-23T08:56:02.102Z,20.9
2022-10-23T08:57:06.475Z,16.4
2022-10-23T08:59:12.278Z,12.6
2022-10-23T09:01:18.226Z,17.8
2022-10-23T09:07:38.424Z,9.7
2022-10-23T09:11:49.985Z,11.3
2022-10-23T09:13:55.802Z,10.4
2022-10-23T09:18:07.384Z,18
2022-10-23T09:20:16.159Z,25
2022-10-23T09:22:21.987Z,18.8
2022-10-23T09:24:27.756Z,11.7
2022-10-23T09:26:33.552Z,9.8
2022-10-23T09:28:39.371Z,15.1
2022-10-23T09:30:45.169Z,15.7
2022-10-23T09:32:50.974Z,20.7
2022-10-23T09:34:59.736Z,11.2
2022-10-23T09:37:05.538Z,10.5
2022-10-23T09:39:11.332Z,11.1
2022-10-23T09:41:17.134Z,12
2022-10-23T09:45:28.725Z,9.4
2022-10-23T09:47:34.524Z,14.5
2022-10-23T09:49:43.301Z,6.8
2022-10-23T09:54:59.273Z,13.6
2022-10-23T09:57:05.077Z,9.4
2022-10-23T09:59:10.895Z,14.3
2022-10-23T10:01:16.810Z,11.7
2022-10-23T10:03:25.465Z,23.8
2022-10-23T10:05:31.259Z,8.6
2022-10-23T10:07:37.064Z,13.7
2022-10-23T10:09:42.860Z,16.4
2022-10-23T10:11:48.662Z,6.9
2022-10-23T10:13:54.476Z,7.6
2022-10-23T10:16:00.283Z,23.2
2022-10-23T10:18:09.061Z,6.9
2022-10-23T10:20:14.844Z,8.5
2022-10-23T10:22:20.649Z,8.4
2022-10-23T10:24:26.441Z,13.5
2022-10-23T10:26:32.252Z,6.8
2022-10-23T10:28:38.047Z,15.7
2022-10-23T10:30:43.842Z,7.5
2022-10-23T10:32:52.654Z,17.8
2022-10-23T10:34:58.407Z,16.4
2022-10-23T10:41:17.364Z,11
2022-10-23T10:43:23.192Z,11.4
2022-10-23T10:45:29.009Z,9.7
2022-10-23T10:47:37.776Z,5.6
2022-10-23T10:49:43.547Z,7.5
2022-10-23T10:51:49.359Z,15.5
2022-10-23T10:54:20.665Z,7.1
2022-10-23T10:56:26.477Z,12.7
2022-10-23T10:58:32.302Z,19.8
2022-10-23T11:00:41.094Z,15.8
2022-10-23T11:02:46.814Z,12.5
2022-10-23T11:04:52.641Z,5.9
2022-10-23T11:06:58.438Z,11.8
2022-10-23T11:09:19.643Z,19.9
2022-10-23T11:11:10.047Z,17.7
2022-10-23T11:13:15.867Z,4.4
2022-10-23T11:15:24.644Z,14.5
2022-10-23T11:17:30.430Z,12.5
2022-10-23T11:19:36.243Z,6.1
2022-10-23T11:21:42.080Z,8.2
2022-10-23T11:23:47.888Z,6.7
2022-10-23T11:25:53.895Z,13.4
2022-10-23T11:28:03.400Z,17.6
2022-10-23T11:30:08.256Z,20
2022-10-23T11:32:14.071Z,6.3
2022-10-23T11:34:19.876Z,14.6
2022-10-23T11:36:26.035Z,10
2022-10-23T11:38:31.464Z,14.1
2022-10-23T11:40:37.265Z,11
2022-10-23T11:42:43.345Z,21.5
2022-10-23T11:44:51.835Z,4
2022-10-23T11:46:57.672Z,12.8
2022-10-23T11:50:07.875Z,6.2
2022-10-23T11:52:13.643Z,6.3
2022-10-23T11:54:19.462Z,6.8
2022-10-23T11:56:25.273Z,14.2
2022-10-23T11:58:34.116Z,8.7
2022-10-23T12:00:39.847Z,10.3
2022-10-23T12:02:45.986Z,4.4
2022-10-23T12:04:51.448Z,11.1
2022-10-23T12:09:03.059Z,7.9
2022-10-23T12:13:17.657Z,12.6
2022-10-23T12:17:29.242Z,13.8
2022-10-23T12:19:35.041Z,8.2
2022-10-23T12:21:40.840Z,9.1
2022-10-23T12:23:48.240Z,5.4
2022-10-23T12:25:52.454Z,3.7
2022-10-23T12:28:01.259Z,4.4
2022-10-23T12:30:07.038Z,7.5
2022-10-23T12:32:12.854Z,4.6
2022-10-23T12:34:18.706Z,16.5
2022-10-23T12:38:33.938Z,5.7
2022-10-23T12:40:36.059Z,9.5
2022-10-23T12:42:45.100Z,11.9
2022-10-23T12:46:56.441Z,17.3
2022-10-23T12:48:00.824Z,9.4
2022-10-23T12:50:06.627Z,5
2022-10-23T12:52:12.409Z,2.7
2022-10-23T12:54:18.232Z,4.6
2022-10-23T12:56:28.609Z,6.6
2022-10-23T13:00:38.620Z,6.4
2022-10-23T13:04:50.217Z,4.7
2022-10-23T13:06:56.022Z,13.1
2022-10-23T13:09:01.800Z,7.8
2022-10-23T13:11:10.597Z,9.3
2022-10-23T13:13:16.381Z,15.5
2022-10-23T13:15:22.188Z,26.7
2022-10-23T13:17:27.998Z,5
2022-10-23T13:19:33.783Z,5.4
2022-10-23T13:21:39.607Z,4.1
2022-10-23T13:23:45.399Z,10.7
2022-10-23T13:25:54.171Z,3.9
2022-10-23T13:27:59.988Z,5.1
2022-10-23T13:30:08.431Z,7.6
2022-10-23T13:32:11.598Z,5.3
2022-10-23T13:34:17.536Z,7.7
2022-10-23T13:36:23.186Z,16.7
2022-10-23T13:38:28.995Z,5.3
2022-10-23T13:40:37.769Z,15.9
2022-10-23T13:42:43.758Z,8
2022-10-23T13:44:49.383Z,4.1
2022-10-23T13:45:53.851Z,4.3
2022-10-23T13:47:59.551Z,5.6
2022-10-23T13:50:05.465Z,14.3
2022-10-23T13:52:11.150Z,12.4
2022-10-23T13:58:31.557Z,2.5
2022-10-23T14:00:37.368Z,9.7
2022-10-23T14:02:43.326Z,1.9
2022-10-23T14:04:48.982Z,5.2
2022-10-23T14:06:54.757Z,7.7
2022-10-23T14:09:03.555Z,8.2
2022-10-23T14:11:09.407Z,8.6
2022-10-23T14:15:20.933Z,3.5
2022-10-23T14:19:32.569Z,7.6
2022-10-23T14:21:38.332Z,7.9
2022-10-23T14:23:47.099Z,7
2022-10-23T14:25:52.907Z,13.2
2022-10-23T14:27:58.731Z,8.2
2022-10-23T14:30:04.653Z,4
2022-10-23T14:32:10.333Z,13
2022-10-23T14:34:16.116Z,2.5
2022-10-23T14:36:21.918Z,6.5
2022-10-23T14:38:30.689Z,6.4
2022-10-23T14:40:36.502Z,2.8
2022-10-23T14:42:42.382Z,14.3
2022-10-23T14:45:13.602Z,6
2022-10-23T14:47:19.418Z,42.3
2022-10-23T14:49:25.207Z,3.4
2022-10-23T14:53:39.763Z,5.5
2022-10-23T14:55:45.592Z,28.5
2022-10-23T14:57:51.403Z,4.6
2022-10-23T14:59:57.181Z,23
2022-10-23T15:02:03.000Z,5.8
2022-10-23T15:04:08.802Z,7.5
2022-10-23T15:06:18.618Z,15.8
2022-10-23T15:08:24.408Z,14.3
2022-10-23T15:10:30.199Z,13.5
2022-10-23T15:14:41.804Z,9.1
2022-10-23T15:16:47.593Z,10.5
2022-10-23T15:18:53.387Z,7.2
2022-10-23T15:21:02.162Z,6.4
2022-10-23T15:23:07.987Z,6.8
2022-10-23T15:25:17.780Z,13.3
2022-10-23T15:27:19.722Z,9
2022-10-23T15:31:31.184Z,6.6
2022-10-23T15:33:36.978Z,16.2
2022-10-23T15:35:45.738Z,9.6
2022-10-23T15:37:51.558Z,10.8
2022-10-23T15:39:59.700Z,10.4
2022-10-23T15:41:01.754Z,19.2
2022-10-23T15:43:09.537Z,3.7
2022-10-23T15:45:13.343Z,4
2022-10-23T15:47:19.137Z,6.6
2022-10-23T15:49:27.924Z,11.4
2022-10-23T15:51:33.712Z,10.9
2022-10-23T15:53:39.491Z,6.2
2022-10-23T15:55:45.321Z,11.3
2022-10-23T15:57:51.134Z,14.3
2022-10-23T15:59:56.966Z,21.5
2022-10-23T16:02:02.952Z,17.5
2022-10-23T16:04:11.521Z,6.9
2022-10-23T16:06:17.310Z,13.5
2022-10-23T16:08:23.117Z,9.3
2022-10-23T16:10:28.937Z,4.9
2022-10-23T16:12:34.707Z,10.9
2022-10-23T16:14:40.511Z,4.5
2022-10-23T16:16:46.291Z,12.4
2022-10-23T16:18:55.081Z,3.3
2022-10-23T16:21:00.880Z,19.7
2022-10-23T16:23:06.655Z,3
2022-10-23T16:25:12.469Z,11.8
2022-10-23T16:27:18.301Z,4.8
2022-10-23T16:31:29.882Z,10.5
2022-10-23T16:33:38.597Z,6.5
2022-10-23T16:35:44.411Z,4.3
2022-10-23T16:37:50.251Z,9.2
2022-10-23T16:41:03.638Z,7.2
2022-10-23T16:43:07.804Z,23.8
2022-10-23T16:45:13.622Z,8.6
2022-10-23T16:47:22.415Z,12.7
2022-10-23T16:49:28.245Z,18.8
2022-10-23T16:51:34.063Z,14.7
2022-10-23T16:53:39.889Z,7.2
2022-10-23T16:55:45.685Z,3.6
2022-10-23T16:57:51.497Z,13.7
2022-10-23T16:59:57.332Z,12.4
2022-10-23T17:06:17.700Z,19.4
2022-10-23T17:08:23.509Z,10.5
2022-10-23T17:16:49.690Z,26.6
2022-10-23T17:18:55.512Z,22
2022-10-23T17:21:01.325Z,10.8
2022-10-23T17:23:07.128Z,6.3
2022-10-23T17:25:12.945Z,11.3
2022-10-23T17:27:18.741Z,17.2
2022-10-23T17:29:24.560Z,6.4
2022-10-23T17:33:39.162Z,3.4
2022-10-23T17:35:44.969Z,4
2022-10-23T17:36:49.352Z,8.4
2022-10-23T17:38:55.161Z,7.6
2022-10-23T17:41:00.967Z,3.5
2022-10-23T17:43:06.777Z,6.8
2022-10-23T17:45:15.573Z,6.1
2022-10-23T17:47:21.373Z,8
2022-10-23T17:49:27.185Z,6.2
2022-10-23T17:51:33.045Z,6.2
2022-10-23T17:53:38.824Z,4.5
2022-10-23T17:55:44.628Z,6.3
2022-10-23T17:57:50.434Z,12.3
2022-10-23T17:59:59.202Z,7.8
2022-10-23T18:02:05.161Z,3.3
2022-10-23T18:04:10.798Z,8.2
2022-10-23T18:06:16.625Z,4.6
2022-10-23T18:08:22.443Z,12
2022-10-23T18:10:28.220Z,18
2022-10-23T18:12:34.019Z,7
2022-10-23T18:14:42.790Z,5.1
2022-10-23T18:16:48.653Z,8.9
2022-10-23T18:21:00.255Z,8.5
2022-10-23T18:25:11.824Z,5.5
2022-10-23T18:29:26.423Z,6.6
2022-10-23T18:31:32.238Z,5.7
2022-10-23T18:33:38.064Z,15.9
2022-10-23T18:36:09.322Z,14.9
2022-10-23T18:38:15.118Z,4.4
2022-10-23T18:44:35.504Z,8.2
2022-10-23T18:46:41.317Z,7.8
2022-10-23T18:50:52.928Z,12.1
2022-10-23T18:52:58.731Z,15.2
2022-10-23T18:55:04.539Z,15
2022-10-23T18:57:13.319Z,5.3
2022-10-23T18:59:19.132Z,4.3
2022-10-23T19:01:25.022Z,15.8
2022-10-23T19:03:30.699Z,8
2022-10-23T19:05:36.506Z,8
2022-10-23T19:07:42.574Z,8.1
2022-10-23T19:11:56.873Z,9.2
2022-10-23T19:18:14.286Z,7.7
2022-10-23T19:20:20.151Z,20.4
2022-10-23T19:22:25.882Z,6.5
2022-10-23T19:24:31.706Z,6.4
2022-10-23T19:26:40.478Z,9.9
2022-10-23T19:28:46.321Z,11.1
2022-10-23T19:30:52.085Z,8.1
2022-10-23T19:31:56.486Z,22.4
2022-10-23T19:34:02.299Z,12.9
2022-10-23T19:36:12.574Z,13.2
2022-10-23T19:38:13.880Z,12.4
2022-10-23T19:40:22.663Z,14.4
2022-10-23T19:42:28.470Z,4.5
2022-10-23T19:44:34.266Z,17
2022-10-23T19:46:40.093Z,15.6
2022-10-23T19:48:45.862Z,19.8
2022-10-23T19:50:51.663Z,5.6
2022-10-23T19:52:57.437Z,10.7
2022-10-23T19:57:12.010Z,5.6
2022-10-23T19:59:17.835Z,6
2022-10-23T20:01:23.760Z,8.7
2022-10-23T20:05:35.245Z,8.4
2022-10-23T20:07:41.231Z,7
2022-10-23T20:09:49.860Z,11.1
2022-10-23T20:11:55.691Z,5.3
2022-10-23T20:14:01.603Z,6.1
2022-10-23T20:16:07.242Z,3
2022-10-23T20:20:18.847Z,3.6
2022-10-23T20:24:33.401Z,7.4
2022-10-23T20:28:45.028Z,5.2
2022-10-23T20:29:49.422Z,7.9
2022-10-23T20:31:55.241Z,5.2
2022-10-23T20:36:06.838Z,3.3
2022-10-23T20:38:15.611Z,10.6
2022-10-23T20:40:21.417Z,4.9
2022-10-23T20:42:27.236Z,5.7
2022-10-23T20:44:33.028Z,3.3
2022-10-23T20:46:38.838Z,6.2
2022-10-23T20:50:50.429Z,3.4
2022-10-23T20:52:59.230Z,4.2
2022-10-23T20:55:05.030Z,6
2022-10-23T20:57:10.838Z,5.9
2022-10-23T20:59:16.653Z,4.9
2022-10-23T21:01:22.612Z,3.8
2022-10-23T21:03:28.267Z,3.2
2022-10-23T21:05:34.056Z,3.3
2022-10-23T21:07:42.829Z,9.5
2022-10-23T21:09:48.627Z,5.3
2022-10-23T21:11:54.431Z,5.8
2022-10-23T21:14:00.250Z,3.3
2022-10-23T21:18:26.282Z,3.5
2022-10-23T21:20:17.799Z,3.2
2022-10-23T21:22:26.410Z,4.8
2022-10-23T21:24:32.229Z,4.9
2022-10-23T21:26:38.029Z,4.4
2022-10-23T21:27:42.898Z,2.2
2022-10-23T21:29:48.233Z,25.6
2022-10-23T21:31:54.053Z,5.7
2022-10-23T21:33:59.863Z,3.6
2022-10-23T21:36:14.193Z,9.1
2022-10-23T21:40:20.197Z,1.7
2022-10-23T21:42:26.048Z,3.8
2022-10-23T21:44:31.803Z,1.8
2022-10-23T21:46:37.607Z,6.5
2022-10-23T21:48:43.395Z,7.5
2022-10-23T21:50:52.192Z,1.3
2022-10-23T21:52:57.822Z,5.1
2022-10-23T21:57:09.415Z,15.4
2022-10-23T21:59:15.242Z,4.1
2022-10-23T22:01:21.264Z,1.9
2022-10-23T22:03:26.832Z,15.2
2022-10-23T22:05:35.591Z,4.6
2022-10-23T22:07:41.613Z,5.5
2022-10-23T22:13:58.810Z,13.6
2022-10-23T22:16:04.609Z,2.1
2022-10-23T22:20:19.194Z,5.2
2022-10-23T22:22:24.987Z,1.4
2022-10-23T22:24:30.781Z,4.5
2022-10-23T22:26:56.523Z,4.6
2022-10-23T22:29:02.306Z,5.4
2022-10-23T22:31:08.093Z,9.3
2022-10-23T22:33:16.844Z,2.8
2022-10-23T22:37:28.443Z,5.7
2022-10-23T22:39:34.252Z,2.1
2022-10-23T22:41:40.083Z,5.4
2022-10-23T22:43:47.463Z,1.7
2022-10-23T22:45:53.237Z,4.6
2022-10-23T22:48:02.021Z,6.2
2022-10-23T22:50:07.800Z,3.9
2022-10-23T22:56:25.203Z,2
2022-10-23T22:58:31.008Z,5.9
2022-10-23T23:00:40.025Z,5.9
2022-10-23T23:06:57.210Z,3.6
2022-10-23T23:13:14.629Z,18
2022-10-23T23:15:20.441Z,11.8
2022-10-23T23:17:29.230Z,4.4
2022-10-23T23:19:35.029Z,0.9
2022-10-23T23:21:40.853Z,1.4
2022-10-23T23:22:45.809Z,6.8
2022-10-23T23:24:50.994Z,2.2
2022-10-23T23:26:56.797Z,3.3
2022-10-23T23:29:02.606Z,6.5
2022-10-23T23:35:22.981Z,11.8
2022-10-23T23:37:28.772Z,5.6
2022-10-23T23:39:34.595Z,14.6
2022-10-23T23:41:40.420Z,6.8
2022-10-23T23:43:46.207Z,11.8
2022-10-23T23:45:54.960Z,36.8
2022-10-23T23:50:06.568Z,3.4
2022-10-23T23:54:18.187Z,8.1
2022-10-23T23:56:23.973Z,7.6
2022-10-23T23:58:29.797Z,9.1
